sensor_id;sensor_type;location;lat;lon;timestamp;P1;durP1;ratioP1;P2;durP2;ratioP2
81508;SDS011;70930;52.412;13.554;2023-08-31T00:00:29;4.60;;;3.83;;
81508;SDS011;70930;52.412;13.554;2023-08-31T00:03:16;4.03;;;2.80;;
81508;SDS011;70930;52.412;13.554;2023-08-31T00:06:02;3.60;;;3.10;;
81508;SDS011;70930;52.412;13.554;2023-08-31T00:08:49;3.20;;;2.80;;
81508;SDS011;70930;52.412;13.554;2023-08-31T00:11:34;5.28;;;3.53;;
81508;SDS011;70930;52.412;13.554;2023-08-31T00:14:20;7.13;;;3.38;;
81508;SDS011;70930;52.412;13.554;2023-08-31T00:17:07;5.28;;;3.72;;
81508;SDS011;70930;52.412;13.554;2023-08-31T00:19:52;4.22;;;3.38;;
81508;SDS011;70930;52.412;13.554;2023-08-31T00:22:39;4.72;;;3.28;;
81508;SDS011;70930;52.412;13.554;2023-08-31T00:25:25;4.38;;;3.40;;
81508;SDS011;70930;52.412;13.554;2023-08-31T00:28:10;4.28;;;3.47;;
81508;SDS011;70930;52.412;13.554;2023-08-31T00:30:55;3.35;;;3.05;;
81508;SDS011;70930;52.412;13.554;2023-08-31T00:33:42;4.47;;;3.95;;
81508;SDS011;70930;52.412;13.554;2023-08-31T00:36:28;4.05;;;3.65;;
81508;SDS011;70930;52.412;13.554;2023-08-31T00:39:14;4.93;;;3.92;;
81508;SDS011;70930;52.412;13.554;2023-08-31T00:42:00;5.07;;;3.65;;
81508;SDS011;70930;52.412;13.554;2023-08-31T00:44:45;4.03;;;3.63;;
81508;SDS011;70930;52.412;13.554;2023-08-31T00:47:34;6.65;;;3.83;;
81508;SDS011;70930;52.412;13.554;2023-08-31T00:50:19;6.55;;;4.22;;
81508;SDS011;70930;52.412;13.554;2023-08-31T00:53:05;4.15;;;3.75;;
81508;SDS011;70930;52.412;13.554;2023-08-31T00:55:51;5.00;;;4.03;;
81508;SDS011;70930;52.412;13.554;2023-08-31T00:58:36;5.40;;;4.03;;
81508;SDS011;70930;52.412;13.554;2023-08-31T01:01:30;5.80;;;4.05;;
81508;SDS011;70930;52.412;13.554;2023-08-31T01:04:25;3.88;;;3.42;;
81508;SDS011;70930;52.412;13.554;2023-08-31T01:07:34;5.75;;;4.47;;
81508;SDS011;70930;52.412;13.554;2023-08-31T01:10:54;5.35;;;4.10;;
81508;SDS011;70930;52.412;13.554;2023-08-31T01:16:33;6.50;;;4.15;;
81508;SDS011;70930;52.412;13.554;2023-08-31T01:19:40;4.15;;;3.55;;
81508;SDS011;70930;52.412;13.554;2023-08-31T01:22:40;4.95;;;4.00;;
81508;SDS011;70930;52.412;13.554;2023-08-31T01:25:31;3.72;;;2.97;;
81508;SDS011;70930;52.412;13.554;2023-08-31T01:28:17;4.90;;;4.32;;
81508;SDS011;70930;52.412;13.554;2023-08-31T01:31:06;5.00;;;2.92;;
81508;SDS011;70930;52.412;13.554;2023-08-31T01:33:51;4.60;;;3.97;;
81508;SDS011;70930;52.412;13.554;2023-08-31T01:36:38;6.55;;;3.60;;
81508;SDS011;70930;52.412;13.554;2023-08-31T01:39:51;3.72;;;3.28;;
81508;SDS011;70930;52.412;13.554;2023-08-31T01:42:46;4.43;;;3.30;;
81508;SDS011;70930;52.412;13.554;2023-08-31T01:45:32;4.75;;;4.35;;
81508;SDS011;70930;52.412;13.554;2023-08-31T01:48:22;4.72;;;3.50;;
81508;SDS011;70930;52.412;13.554;2023-08-31T01:51:08;4.50;;;3.13;;
81508;SDS011;70930;52.412;13.554;2023-08-31T01:53:55;3.63;;;2.50;;
81508;SDS011;70930;52.412;13.554;2023-08-31T01:56:40;3.33;;;2.72;;
81508;SDS011;70930;52.412;13.554;2023-08-31T01:59:26;3.70;;;3.00;;
81508;SDS011;70930;52.412;13.554;2023-08-31T02:02:12;4.72;;;3.33;;
81508;SDS011;70930;52.412;13.554;2023-08-31T02:04:57;3.63;;;3.17;;
81508;SDS011;70930;52.412;13.554;2023-08-31T02:07:46;3.70;;;2.70;;
81508;SDS011;70930;52.412;13.554;2023-08-31T02:10:31;3.70;;;2.90;;
81508;SDS011;70930;52.412;13.554;2023-08-31T02:13:17;6.70;;;3.63;;
81508;SDS011;70930;52.412;13.554;2023-08-31T02:16:02;5.18;;;3.83;;
81508;SDS011;70930;52.412;13.554;2023-08-31T02:18:48;3.83;;;2.90;;
81508;SDS011;70930;52.412;13.554;2023-08-31T02:21:33;3.90;;;3.50;;
81508;SDS011;70930;52.412;13.554;2023-08-31T02:24:19;4.50;;;3.13;;
81508;SDS011;70930;52.412;13.554;2023-08-31T02:27:05;4.43;;;3.40;;
81508;SDS011;70930;52.412;13.554;2023-08-31T02:29:50;4.45;;;3.22;;
81508;SDS011;70930;52.412;13.554;2023-08-31T02:32:36;3.90;;;3.30;;
81508;SDS011;70930;52.412;13.554;2023-08-31T02:35:22;3.38;;;2.92;;
81508;SDS011;70930;52.412;13.554;2023-08-31T02:38:08;4.53;;;2.92;;
81508;SDS011;70930;52.412;13.554;2023-08-31T02:40:53;2.85;;;2.58;;
81508;SDS011;70930;52.412;13.554;2023-08-31T02:43:38;2.90;;;2.45;;
81508;SDS011;70930;52.412;13.554;2023-08-31T02:46:24;3.63;;;2.45;;
81508;SDS011;70930;52.412;13.554;2023-08-31T02:49:10;3.55;;;2.45;;
81508;SDS011;70930;52.412;13.554;2023-08-31T02:51:55;3.13;;;2.38;;
81508;SDS011;70930;52.412;13.554;2023-08-31T02:54:40;2.17;;;1.80;;
81508;SDS011;70930;52.412;13.554;2023-08-31T02:57:26;3.97;;;1.77;;
81508;SDS011;70930;52.412;13.554;2023-08-31T03:00:11;3.05;;;1.70;;
81508;SDS011;70930;52.412;13.554;2023-08-31T03:02:58;2.53;;;2.10;;
81508;SDS011;70930;52.412;13.554;2023-08-31T03:05:43;2.33;;;1.67;;
81508;SDS011;70930;52.412;13.554;2023-08-31T03:08:29;2.88;;;1.95;;
81508;SDS011;70930;52.412;13.554;2023-08-31T03:11:14;2.78;;;1.85;;
81508;SDS011;70930;52.412;13.554;2023-08-31T03:14:01;2.35;;;1.77;;
81508;SDS011;70930;52.412;13.554;2023-08-31T03:16:46;3.35;;;2.00;;
81508;SDS011;70930;52.412;13.554;2023-08-31T03:19:31;3.97;;;2.38;;
81508;SDS011;70930;52.412;13.554;2023-08-31T03:22:17;5.47;;;2.08;;
81508;SDS011;70930;52.412;13.554;2023-08-31T03:25:02;2.75;;;1.88;;
81508;SDS011;70930;52.412;13.554;2023-08-31T03:27:48;4.15;;;2.03;;
81508;SDS011;70930;52.412;13.554;2023-08-31T03:30:34;2.88;;;2.10;;
81508;SDS011;70930;52.412;13.554;2023-08-31T03:33:19;3.40;;;1.92;;
81508;SDS011;70930;52.412;13.554;2023-08-31T03:36:05;2.78;;;2.20;;
81508;SDS011;70930;52.412;13.554;2023-08-31T03:38:50;3.22;;;2.33;;
81508;SDS011;70930;52.412;13.554;2023-08-31T03:41:36;2.75;;;2.00;;
81508;SDS011;70930;52.412;13.554;2023-08-31T03:44:21;4.10;;;2.05;;
81508;SDS011;70930;52.412;13.554;2023-08-31T03:47:07;2.95;;;2.20;;
81508;SDS011;70930;52.412;13.554;2023-08-31T03:49:52;2.38;;;2.00;;
81508;SDS011;70930;52.412;13.554;2023-08-31T03:52:38;3.85;;;2.42;;
81508;SDS011;70930;52.412;13.554;2023-08-31T03:55:23;3.20;;;2.30;;
81508;SDS011;70930;52.412;13.554;2023-08-31T03:58:09;3.35;;;2.25;;
81508;SDS011;70930;52.412;13.554;2023-08-31T04:00:54;4.72;;;2.45;;
81508;SDS011;70930;52.412;13.554;2023-08-31T04:03:41;3.75;;;2.83;;
81508;SDS011;70930;52.412;13.554;2023-08-31T04:06:27;3.35;;;2.40;;
81508;SDS011;70930;52.412;13.554;2023-08-31T04:09:13;3.55;;;2.92;;
81508;SDS011;70930;52.412;13.554;2023-08-31T04:11:59;3.33;;;2.63;;
81508;SDS011;70930;52.412;13.554;2023-08-31T04:14:45;3.75;;;2.70;;
81508;SDS011;70930;52.412;13.554;2023-08-31T04:17:30;3.03;;;2.35;;
81508;SDS011;70930;52.412;13.554;2023-08-31T04:20:15;3.65;;;3.08;;
81508;SDS011;70930;52.412;13.554;2023-08-31T04:23:01;3.38;;;2.80;;
81508;SDS011;70930;52.412;13.554;2023-08-31T04:25:47;4.13;;;2.38;;
81508;SDS011;70930;52.412;13.554;2023-08-31T04:28:32;4.03;;;3.10;;
81508;SDS011;70930;52.412;13.554;2023-08-31T04:31:18;4.00;;;2.58;;
81508;SDS011;70930;52.412;13.554;2023-08-31T04:34:03;4.40;;;2.45;;
81508;SDS011;70930;52.412;13.554;2023-08-31T04:36:49;3.30;;;2.42;;
81508;SDS011;70930;52.412;13.554;2023-08-31T04:39:34;5.90;;;3.08;;
81508;SDS011;70930;52.412;13.554;2023-08-31T04:42:20;3.92;;;2.90;;
81508;SDS011;70930;52.412;13.554;2023-08-31T04:45:06;3.28;;;2.67;;
81508;SDS011;70930;52.412;13.554;2023-08-31T04:47:52;3.78;;;2.92;;
81508;SDS011;70930;52.412;13.554;2023-08-31T04:50:38;3.88;;;3.15;;
81508;SDS011;70930;52.412;13.554;2023-08-31T04:53:23;3.83;;;3.00;;
81508;SDS011;70930;52.412;13.554;2023-08-31T04:56:09;4.60;;;3.63;;
81508;SDS011;70930;52.412;13.554;2023-08-31T04:58:54;4.97;;;3.72;;
81508;SDS011;70930;52.412;13.554;2023-08-31T05:01:40;4.43;;;3.40;;
81508;SDS011;70930;52.412;13.554;2023-08-31T05:04:25;4.70;;;3.22;;
81508;SDS011;70930;52.412;13.554;2023-08-31T05:07:11;4.53;;;3.70;;
81508;SDS011;70930;52.412;13.554;2023-08-31T05:09:56;5.65;;;3.15;;
81508;SDS011;70930;52.412;13.554;2023-08-31T05:12:42;4.35;;;3.45;;
81508;SDS011;70930;52.412;13.554;2023-08-31T05:15:27;5.43;;;3.80;;
81508;SDS011;70930;52.412;13.554;2023-08-31T05:18:14;5.40;;;3.63;;
81508;SDS011;70930;52.412;13.554;2023-08-31T05:20:59;5.97;;;3.72;;
81508;SDS011;70930;52.412;13.554;2023-08-31T05:23:44;5.63;;;3.60;;
81508;SDS011;70930;52.412;13.554;2023-08-31T05:26:30;5.43;;;3.55;;
81508;SDS011;70930;52.412;13.554;2023-08-31T05:29:15;4.38;;;3.75;;
81508;SDS011;70930;52.412;13.554;2023-08-31T05:32:01;5.35;;;3.92;;
81508;SDS011;70930;52.412;13.554;2023-08-31T05:34:47;5.85;;;4.35;;
81508;SDS011;70930;52.412;13.554;2023-08-31T05:37:33;6.60;;;4.38;;
81508;SDS011;70930;52.412;13.554;2023-08-31T05:43:06;5.72;;;4.13;;
81508;SDS011;70930;52.412;13.554;2023-08-31T05:45:51;6.15;;;3.92;;
81508;SDS011;70930;52.412;13.554;2023-08-31T05:48:37;5.65;;;3.72;;
81508;SDS011;70930;52.412;13.554;2023-08-31T05:51:22;8.05;;;4.30;;
81508;SDS011;70930;52.412;13.554;2023-08-31T05:54:08;6.53;;;5.00;;
81508;SDS011;70930;52.412;13.554;2023-08-31T05:56:56;7.28;;;4.82;;
81508;SDS011;70930;52.412;13.554;2023-08-31T05:59:42;10.60;;;5.28;;
81508;SDS011;70930;52.412;13.554;2023-08-31T06:02:27;7.45;;;4.70;;
81508;SDS011;70930;52.412;13.554;2023-08-31T06:05:13;6.97;;;4.72;;
81508;SDS011;70930;52.412;13.554;2023-08-31T06:08:01;7.47;;;4.63;;
81508;SDS011;70930;52.412;13.554;2023-08-31T06:10:46;6.78;;;5.05;;
81508;SDS011;70930;52.412;13.554;2023-08-31T06:13:32;6.88;;;5.15;;
81508;SDS011;70930;52.412;13.554;2023-08-31T06:16:17;5.72;;;4.90;;
81508;SDS011;70930;52.412;13.554;2023-08-31T06:19:02;8.10;;;4.53;;
81508;SDS011;70930;52.412;13.554;2023-08-31T06:21:48;6.30;;;5.07;;
81508;SDS011;70930;52.412;13.554;2023-08-31T06:24:34;7.03;;;4.85;;
81508;SDS011;70930;52.412;13.554;2023-08-31T06:27:20;6.72;;;5.15;;
81508;SDS011;70930;52.412;13.554;2023-08-31T06:30:06;8.20;;;4.95;;
81508;SDS011;70930;52.412;13.554;2023-08-31T06:32:53;8.38;;;5.55;;
81508;SDS011;70930;52.412;13.554;2023-08-31T06:35:39;8.18;;;4.70;;
81508;SDS011;70930;52.412;13.554;2023-08-31T06:38:24;8.32;;;4.97;;
81508;SDS011;70930;52.412;13.554;2023-08-31T06:41:10;6.65;;;5.07;;
81508;SDS011;70930;52.412;13.554;2023-08-31T06:43:55;7.80;;;4.68;;
81508;SDS011;70930;52.412;13.554;2023-08-31T06:46:41;9.13;;;5.40;;
81508;SDS011;70930;52.412;13.554;2023-08-31T06:49:26;10.77;;;5.13;;
81508;SDS011;70930;52.412;13.554;2023-08-31T06:52:12;6.25;;;4.55;;
81508;SDS011;70930;52.412;13.554;2023-08-31T06:54:58;8.70;;;4.88;;
81508;SDS011;70930;52.412;13.554;2023-08-31T06:57:43;7.70;;;5.13;;
81508;SDS011;70930;52.412;13.554;2023-08-31T07:00:29;10.95;;;5.25;;
81508;SDS011;70930;52.412;13.554;2023-08-31T07:03:14;7.25;;;4.90;;
81508;SDS011;70930;52.412;13.554;2023-08-31T07:05:59;7.00;;;4.80;;
81508;SDS011;70930;52.412;13.554;2023-08-31T07:08:45;9.48;;;5.60;;
81508;SDS011;70930;52.412;13.554;2023-08-31T07:11:32;10.80;;;6.00;;
81508;SDS011;70930;52.412;13.554;2023-08-31T07:14:17;7.80;;;5.53;;
81508;SDS011;70930;52.412;13.554;2023-08-31T07:17:03;12.68;;;6.57;;
81508;SDS011;70930;52.412;13.554;2023-08-31T07:19:48;8.40;;;6.35;;
81508;SDS011;70930;52.412;13.554;2023-08-31T07:22:34;11.50;;;6.90;;
81508;SDS011;70930;52.412;13.554;2023-08-31T07:25:19;9.07;;;5.55;;
81508;SDS011;70930;52.412;13.554;2023-08-31T07:28:05;12.50;;;6.78;;
81508;SDS011;70930;52.412;13.554;2023-08-31T07:31:00;7.68;;;5.70;;
81508;SDS011;70930;52.412;13.554;2023-08-31T07:33:46;10.70;;;7.60;;
81508;SDS011;70930;52.412;13.554;2023-08-31T07:36:31;12.23;;;6.10;;
81508;SDS011;70930;52.412;13.554;2023-08-31T07:39:17;9.65;;;5.80;;
81508;SDS011;70930;52.412;13.554;2023-08-31T07:42:05;10.07;;;6.05;;
81508;SDS011;70930;52.412;13.554;2023-08-31T07:44:51;9.10;;;6.47;;
81508;SDS011;70930;52.412;13.554;2023-08-31T07:47:36;7.65;;;5.85;;
81508;SDS011;70930;52.412;13.554;2023-08-31T07:50:22;7.75;;;5.75;;
81508;SDS011;70930;52.412;13.554;2023-08-31T07:53:07;8.73;;;5.88;;
81508;SDS011;70930;52.412;13.554;2023-08-31T07:55:53;8.63;;;5.70;;
81508;SDS011;70930;52.412;13.554;2023-08-31T08:01:25;9.40;;;5.07;;
81508;SDS011;70930;52.412;13.554;2023-08-31T08:04:11;7.20;;;5.18;;
81508;SDS011;70930;52.412;13.554;2023-08-31T08:06:57;10.27;;;6.30;;
81508;SDS011;70930;52.412;13.554;2023-08-31T08:09:42;9.40;;;5.32;;
81508;SDS011;70930;52.412;13.554;2023-08-31T08:12:27;7.40;;;5.82;;
81508;SDS011;70930;52.412;13.554;2023-08-31T08:15:22;10.63;;;7.00;;
81508;SDS011;70930;52.412;13.554;2023-08-31T08:18:07;6.60;;;5.60;;
81508;SDS011;70930;52.412;13.554;2023-08-31T08:20:53;7.47;;;5.47;;
81508;SDS011;70930;52.412;13.554;2023-08-31T08:23:38;7.43;;;5.22;;
81508;SDS011;70930;52.412;13.554;2023-08-31T08:26:24;8.40;;;4.70;;
81508;SDS011;70930;52.412;13.554;2023-08-31T08:29:09;7.57;;;5.55;;
81508;SDS011;70930;52.412;13.554;2023-08-31T08:31:55;9.00;;;5.22;;
81508;SDS011;70930;52.412;13.554;2023-08-31T08:34:40;6.05;;;4.53;;
81508;SDS011;70930;52.412;13.554;2023-08-31T08:37:26;7.15;;;4.90;;
81508;SDS011;70930;52.412;13.554;2023-08-31T08:40:11;8.95;;;4.93;;
81508;SDS011;70930;52.412;13.554;2023-08-31T08:42:57;8.90;;;4.07;;
81508;SDS011;70930;52.412;13.554;2023-08-31T08:45:51;6.65;;;4.40;;
81508;SDS011;70930;52.412;13.554;2023-08-31T08:48:38;5.38;;;3.28;;
81508;SDS011;70930;52.412;13.554;2023-08-31T08:51:24;5.35;;;2.97;;
81508;SDS011;70930;52.412;13.554;2023-08-31T08:54:10;3.65;;;2.58;;
81508;SDS011;70930;52.412;13.554;2023-08-31T08:56:56;6.32;;;3.17;;
81508;SDS011;70930;52.412;13.554;2023-08-31T08:59:41;4.38;;;2.38;;
81508;SDS011;70930;52.412;13.554;2023-08-31T09:02:27;4.93;;;2.70;;
81508;SDS011;70930;52.412;13.554;2023-08-31T09:05:12;3.65;;;2.50;;
81508;SDS011;70930;52.412;13.554;2023-08-31T09:08:05;3.95;;;2.20;;
81508;SDS011;70930;52.412;13.554;2023-08-31T09:10:55;3.25;;;2.53;;
81508;SDS011;70930;52.412;13.554;2023-08-31T09:13:46;5.00;;;2.40;;
81508;SDS011;70930;52.412;13.554;2023-08-31T09:16:31;2.75;;;2.00;;
81508;SDS011;70930;52.412;13.554;2023-08-31T09:19:23;6.22;;;2.78;;
81508;SDS011;70930;52.412;13.554;2023-08-31T09:22:13;4.78;;;1.95;;
81508;SDS011;70930;52.412;13.554;2023-08-31T09:24:58;4.32;;;1.90;;
81508;SDS011;70930;52.412;13.554;2023-08-31T09:27:43;4.63;;;1.75;;
81508;SDS011;70930;52.412;13.554;2023-08-31T09:30:34;2.28;;;1.60;;
81508;SDS011;70930;52.412;13.554;2023-08-31T09:33:20;2.40;;;1.52;;
81508;SDS011;70930;52.412;13.554;2023-08-31T09:36:06;4.53;;;1.80;;
81508;SDS011;70930;52.412;13.554;2023-08-31T09:38:53;5.03;;;1.55;;
81508;SDS011;70930;52.412;13.554;2023-08-31T09:41:53;2.38;;;1.30;;
81508;SDS011;70930;52.412;13.554;2023-08-31T09:44:39;4.18;;;1.30;;
81508;SDS011;70930;52.412;13.554;2023-08-31T09:47:27;4.93;;;1.42;;
81508;SDS011;70930;52.412;13.554;2023-08-31T09:50:13;4.38;;;1.63;;
81508;SDS011;70930;52.412;13.554;2023-08-31T09:53:02;5.53;;;1.42;;
81508;SDS011;70930;52.412;13.554;2023-08-31T09:55:49;4.15;;;1.63;;
81508;SDS011;70930;52.412;13.554;2023-08-31T09:58:36;4.80;;;1.60;;
81508;SDS011;70930;52.412;13.554;2023-08-31T10:01:22;2.13;;;1.38;;
81508;SDS011;70930;52.412;13.554;2023-08-31T10:04:09;3.15;;;1.23;;
81508;SDS011;70930;52.412;13.554;2023-08-31T10:06:54;3.95;;;1.67;;
81508;SDS011;70930;52.412;13.554;2023-08-31T10:09:40;2.78;;;1.40;;
81508;SDS011;70930;52.412;13.554;2023-08-31T10:12:26;4.30;;;1.35;;
81508;SDS011;70930;52.412;13.554;2023-08-31T10:15:12;2.58;;;1.27;;
81508;SDS011;70930;52.412;13.554;2023-08-31T10:17:59;4.53;;;1.50;;
81508;SDS011;70930;52.412;13.554;2023-08-31T10:20:45;2.28;;;1.23;;
81508;SDS011;70930;52.412;13.554;2023-08-31T10:23:31;4.35;;;1.30;;
81508;SDS011;70930;52.412;13.554;2023-08-31T10:26:24;3.42;;;1.45;;
81508;SDS011;70930;52.412;13.554;2023-08-31T10:29:47;2.47;;;1.13;;
81508;SDS011;70930;52.412;13.554;2023-08-31T10:32:25;3.63;;;1.20;;
81508;SDS011;70930;52.412;13.554;2023-08-31T10:35:11;2.85;;;1.02;;
81508;SDS011;70930;52.412;13.554;2023-08-31T10:43:57;2.72;;;1.10;;
81508;SDS011;70930;52.412;13.554;2023-08-31T10:46:43;2.78;;;1.20;;
81508;SDS011;70930;52.412;13.554;2023-08-31T10:49:29;1.98;;;0.90;;
81508;SDS011;70930;52.412;13.554;2023-08-31T10:52:17;5.70;;;1.63;;
81508;SDS011;70930;52.412;13.554;2023-08-31T10:55:04;3.20;;;1.38;;
81508;SDS011;70930;52.412;13.554;2023-08-31T10:57:50;2.28;;;1.20;;
81508;SDS011;70930;52.412;13.554;2023-08-31T11:03:57;2.50;;;1.10;;
81508;SDS011;70930;52.412;13.554;2023-08-31T11:06:44;1.48;;;0.90;;
81508;SDS011;70930;52.412;13.554;2023-08-31T11:09:29;3.53;;;1.38;;
81508;SDS011;70930;52.412;13.554;2023-08-31T11:12:16;2.10;;;0.90;;
81508;SDS011;70930;52.412;13.554;2023-08-31T11:15:01;1.77;;;0.80;;
81508;SDS011;70930;52.412;13.554;2023-08-31T11:17:52;2.45;;;1.00;;
81508;SDS011;70930;52.412;13.554;2023-08-31T11:20:38;2.63;;;1.25;;
81508;SDS011;70930;52.412;13.554;2023-08-31T11:23:25;2.33;;;1.25;;
81508;SDS011;70930;52.412;13.554;2023-08-31T11:26:10;3.88;;;1.13;;
81508;SDS011;70930;52.412;13.554;2023-08-31T11:28:56;2.65;;;1.20;;
81508;SDS011;70930;52.412;13.554;2023-08-31T11:31:41;2.28;;;0.98;;
81508;SDS011;70930;52.412;13.554;2023-08-31T11:34:27;1.55;;;1.10;;
81508;SDS011;70930;52.412;13.554;2023-08-31T11:37:13;2.17;;;1.10;;
81508;SDS011;70930;52.412;13.554;2023-08-31T11:40:05;2.40;;;1.40;;
81508;SDS011;70930;52.412;13.554;2023-08-31T11:42:51;1.67;;;1.15;;
81508;SDS011;70930;52.412;13.554;2023-08-31T11:45:37;3.55;;;1.50;;
81508;SDS011;70930;52.412;13.554;2023-08-31T11:48:24;2.25;;;1.40;;
81508;SDS011;70930;52.412;13.554;2023-08-31T11:51:10;1.60;;;1.10;;
81508;SDS011;70930;52.412;13.554;2023-08-31T11:56:45;1.30;;;0.90;;
81508;SDS011;70930;52.412;13.554;2023-08-31T11:59:34;1.38;;;1.20;;
81508;SDS011;70930;52.412;13.554;2023-08-31T12:02:21;3.05;;;1.20;;
81508;SDS011;70930;52.412;13.554;2023-08-31T12:05:06;1.92;;;0.90;;
81508;SDS011;70930;52.412;13.554;2023-08-31T12:07:53;1.60;;;0.90;;
81508;SDS011;70930;52.412;13.554;2023-08-31T12:10:42;1.35;;;1.00;;
81508;SDS011;70930;52.412;13.554;2023-08-31T12:13:27;1.88;;;1.08;;
81508;SDS011;70930;52.412;13.554;2023-08-31T12:16:14;1.73;;;1.00;;
81508;SDS011;70930;52.412;13.554;2023-08-31T12:21:49;1.90;;;1.00;;
81508;SDS011;70930;52.412;13.554;2023-08-31T12:24:41;2.35;;;1.00;;
81508;SDS011;70930;52.412;13.554;2023-08-31T12:27:26;2.42;;;1.10;;
81508;SDS011;70930;52.412;13.554;2023-08-31T12:30:12;1.23;;;1.05;;
81508;SDS011;70930;52.412;13.554;2023-08-31T12:32:58;1.75;;;1.10;;
81508;SDS011;70930;52.412;13.554;2023-08-31T12:35:43;1.52;;;1.40;;
81508;SDS011;70930;52.412;13.554;2023-08-31T12:38:29;1.60;;;1.10;;
81508;SDS011;70930;52.412;13.554;2023-08-31T12:41:16;1.30;;;0.98;;
81508;SDS011;70930;52.412;13.554;2023-08-31T12:44:02;2.45;;;1.30;;
81508;SDS011;70930;52.412;13.554;2023-08-31T12:46:48;1.63;;;1.17;;
81508;SDS011;70930;52.412;13.554;2023-08-31T12:49:34;1.92;;;1.20;;
81508;SDS011;70930;52.412;13.554;2023-08-31T12:52:19;2.45;;;1.50;;
81508;SDS011;70930;52.412;13.554;2023-08-31T12:55:05;1.33;;;0.95;;
81508;SDS011;70930;52.412;13.554;2023-08-31T12:57:51;4.90;;;1.02;;
81508;SDS011;70930;52.412;13.554;2023-08-31T13:00:37;1.38;;;0.95;;
81508;SDS011;70930;52.412;13.554;2023-08-31T13:03:22;3.03;;;1.20;;
81508;SDS011;70930;52.412;13.554;2023-08-31T13:06:08;1.58;;;0.98;;
81508;SDS011;70930;52.412;13.554;2023-08-31T13:08:53;4.10;;;1.45;;
81508;SDS011;70930;52.412;13.554;2023-08-31T13:11:39;4.45;;;1.40;;
81508;SDS011;70930;52.412;13.554;2023-08-31T13:17:11;2.10;;;1.30;;
81508;SDS011;70930;52.412;13.554;2023-08-31T13:19:56;2.55;;;1.20;;
81508;SDS011;70930;52.412;13.554;2023-08-31T13:22:42;2.63;;;1.10;;
81508;SDS011;70930;52.412;13.554;2023-08-31T13:25:28;3.83;;;1.13;;
81508;SDS011;70930;52.412;13.554;2023-08-31T13:28:14;1.83;;;1.00;;
81508;SDS011;70930;52.412;13.554;2023-08-31T13:31:00;4.20;;;1.23;;
81508;SDS011;70930;52.412;13.554;2023-08-31T13:33:46;1.50;;;0.90;;
81508;SDS011;70930;52.412;13.554;2023-08-31T13:36:31;2.20;;;0.90;;
81508;SDS011;70930;52.412;13.554;2023-08-31T13:39:17;2.90;;;1.20;;
81508;SDS011;70930;52.412;13.554;2023-08-31T13:42:03;2.63;;;1.00;;
81508;SDS011;70930;52.412;13.554;2023-08-31T13:44:49;1.92;;;1.08;;
81508;SDS011;70930;52.412;13.554;2023-08-31T13:47:34;3.08;;;1.00;;
81508;SDS011;70930;52.412;13.554;2023-08-31T13:50:19;1.45;;;0.88;;
81508;SDS011;70930;52.412;13.554;2023-08-31T13:53:05;1.63;;;0.82;;
81508;SDS011;70930;52.412;13.554;2023-08-31T13:55:50;3.88;;;1.15;;
81508;SDS011;70930;52.412;13.554;2023-08-31T13:58:35;1.70;;;1.17;;
81508;SDS011;70930;52.412;13.554;2023-08-31T14:01:21;4.45;;;1.17;;
81508;SDS011;70930;52.412;13.554;2023-08-31T14:04:06;1.77;;;1.20;;
81508;SDS011;70930;52.412;13.554;2023-08-31T14:06:52;2.60;;;1.05;;
81508;SDS011;70930;52.412;13.554;2023-08-31T14:09:38;1.88;;;1.15;;
81508;SDS011;70930;52.412;13.554;2023-08-31T14:12:23;1.50;;;0.82;;
81508;SDS011;70930;52.412;13.554;2023-08-31T14:15:09;1.42;;;0.90;;
81508;SDS011;70930;52.412;13.554;2023-08-31T14:17:55;2.40;;;1.08;;
81508;SDS011;70930;52.412;13.554;2023-08-31T14:20:40;2.10;;;1.20;;
81508;SDS011;70930;52.412;13.554;2023-08-31T14:23:26;1.63;;;0.90;;
81508;SDS011;70930;52.412;13.554;2023-08-31T14:26:12;1.85;;;0.90;;
81508;SDS011;70930;52.412;13.554;2023-08-31T14:28:58;1.45;;;1.10;;
81508;SDS011;70930;52.412;13.554;2023-08-31T14:31:43;1.52;;;1.08;;
81508;SDS011;70930;52.412;13.554;2023-08-31T14:34:29;2.45;;;1.27;;
81508;SDS011;70930;52.412;13.554;2023-08-31T14:37:16;4.90;;;1.25;;
81508;SDS011;70930;52.412;13.554;2023-08-31T14:40:02;1.23;;;0.90;;
81508;SDS011;70930;52.412;13.554;2023-08-31T14:42:48;1.48;;;0.93;;
81508;SDS011;70930;52.412;13.554;2023-08-31T14:45:34;2.60;;;1.25;;
81508;SDS011;70930;52.412;13.554;2023-08-31T14:48:19;1.52;;;1.05;;
81508;SDS011;70930;52.412;13.554;2023-08-31T14:51:05;2.25;;;0.93;;
81508;SDS011;70930;52.412;13.554;2023-08-31T14:53:50;2.22;;;0.82;;
81508;SDS011;70930;52.412;13.554;2023-08-31T14:56:36;1.98;;;0.80;;
81508;SDS011;70930;52.412;13.554;2023-08-31T14:59:21;1.20;;;0.70;;
81508;SDS011;70930;52.412;13.554;2023-08-31T15:02:07;1.63;;;0.70;;
81508;SDS011;70930;52.412;13.554;2023-08-31T15:04:52;3.08;;;0.95;;
81508;SDS011;70930;52.412;13.554;2023-08-31T15:07:38;0.98;;;0.73;;
81508;SDS011;70930;52.412;13.554;2023-08-31T15:10:24;1.13;;;0.70;;
81508;SDS011;70930;52.412;13.554;2023-08-31T15:13:09;1.92;;;0.95;;
81508;SDS011;70930;52.412;13.554;2023-08-31T15:15:55;1.52;;;0.60;;
81508;SDS011;70930;52.412;13.554;2023-08-31T15:18:40;2.30;;;0.95;;
81508;SDS011;70930;52.412;13.554;2023-08-31T15:21:26;1.65;;;0.70;;
81508;SDS011;70930;52.412;13.554;2023-08-31T15:24:11;3.28;;;0.75;;
81508;SDS011;70930;52.412;13.554;2023-08-31T15:26:57;3.13;;;0.82;;
81508;SDS011;70930;52.412;13.554;2023-08-31T15:32:29;2.13;;;0.70;;
81508;SDS011;70930;52.412;13.554;2023-08-31T15:35:16;3.47;;;1.30;;
81508;SDS011;70930;52.412;13.554;2023-08-31T15:38:05;2.17;;;0.88;;
81508;SDS011;70930;52.412;13.554;2023-08-31T15:40:50;2.25;;;1.05;;
81508;SDS011;70930;52.412;13.554;2023-08-31T15:43:36;3.20;;;1.10;;
81508;SDS011;70930;52.412;13.554;2023-08-31T15:46:24;1.90;;;0.90;;
81508;SDS011;70930;52.412;13.554;2023-08-31T15:49:09;2.83;;;0.90;;
81508;SDS011;70930;52.412;13.554;2023-08-31T15:51:55;1.10;;;0.70;;
81508;SDS011;70930;52.412;13.554;2023-08-31T15:54:40;1.92;;;1.15;;
81508;SDS011;70930;52.412;13.554;2023-08-31T15:57:26;1.77;;;0.80;;
81508;SDS011;70930;52.412;13.554;2023-08-31T16:00:11;3.65;;;0.90;;
81508;SDS011;70930;52.412;13.554;2023-08-31T16:02:57;2.50;;;0.93;;
81508;SDS011;70930;52.412;13.554;2023-08-31T16:05:42;1.95;;;0.73;;
81508;SDS011;70930;52.412;13.554;2023-08-31T16:08:33;2.28;;;0.90;;
81508;SDS011;70930;52.412;13.554;2023-08-31T16:11:18;1.45;;;1.00;;
81508;SDS011;70930;52.412;13.554;2023-08-31T16:14:07;1.42;;;0.80;;
81508;SDS011;70930;52.412;13.554;2023-08-31T16:16:54;2.08;;;1.00;;
81508;SDS011;70930;52.412;13.554;2023-08-31T16:19:39;1.65;;;0.98;;
81508;SDS011;70930;52.412;13.554;2023-08-31T16:22:24;2.22;;;1.10;;
81508;SDS011;70930;52.412;13.554;2023-08-31T16:25:10;3.92;;;1.40;;
81508;SDS011;70930;52.412;13.554;2023-08-31T16:27:56;2.05;;;1.30;;
81508;SDS011;70930;52.412;13.554;2023-08-31T16:30:45;2.55;;;1.00;;
81508;SDS011;70930;52.412;13.554;2023-08-31T16:33:32;1.75;;;1.10;;
81508;SDS011;70930;52.412;13.554;2023-08-31T16:36:17;1.70;;;1.20;;
81508;SDS011;70930;52.412;13.554;2023-08-31T16:39:03;1.33;;;0.70;;
81508;SDS011;70930;52.412;13.554;2023-08-31T16:41:49;2.13;;;1.17;;
81508;SDS011;70930;52.412;13.554;2023-08-31T16:44:34;1.67;;;1.02;;
81508;SDS011;70930;52.412;13.554;2023-08-31T16:47:20;0.93;;;0.77;;
81508;SDS011;70930;52.412;13.554;2023-08-31T16:50:05;1.42;;;0.80;;
81508;SDS011;70930;52.412;13.554;2023-08-31T16:52:51;1.17;;;0.90;;
81508;SDS011;70930;52.412;13.554;2023-08-31T16:55:36;2.78;;;1.08;;